Time;durP1;ratioP1;P1;durP2;ratioP2;P2;SDS_P1;SDS_P2;PMS_P1;PMS_P2;Temp;Humidity;BMP_temperature;BMP_pressure;BME280_temperature;BME280_humidity;BME280_pressure;Samples;Min_cycle;Max_cycle;Signal;HPM_P1;HPM_P2
2022/06/06 00:01:16;;;;;;;11.70;5.10;;;;;;;10.60;90.85;100266.14;105240;1265;74900;-75
2022/06/06 00:04:03;;;;;;;8.60;4.90;;;;;;;10.59;90.90;100263.56;105356;1265;69644;-74
2022/06/06 00:06:52;;;;;;;10.70;5.10;;;;;;;10.57;91.02;100260.81;105384;1265;74240;-74
2022/06/06 00:09:38;;;;;;;11.20;5.90;;;;;;;10.57;91.06;100257.69;105338;1265;59685;-73
2022/06/06 00:12:25;;;;;;;10.00;5.60;;;;;;;10.57;90.69;100256.57;105326;1265;62184;-73
2022/06/06 00:15:14;;;;;;;10.20;5.70;;;;;;;10.57;90.70;100253.41;105314;1265;73698;-73
2022/06/06 00:18:03;;;;;;;11.40;5.70;;;;;;;10.54;90.92;100252.40;105311;1265;68849;-74
2022/06/06 00:20:49;;;;;;;10.20;5.60;;;;;;;10.50;90.94;100244.83;105292;1268;74078;-73
2022/06/06 00:23:37;;;;;;;9.70;5.50;;;;;;;10.48;91.12;100248.07;105384;1265;59765;-72
2022/06/06 00:26:24;;;;;;;9.50;5.00;;;;;;;10.45;91.06;100244.52;105245;1265;60595;-73
2022/06/06 00:29:15;;;;;;;9.40;5.20;;;;;;;10.43;91.37;100241.15;105380;1265;75262;-72
2022/06/06 00:35:09;;;;;;;10.30;5.80;;;;;;;10.40;92.37;100233.91;105535;1265;72247;-73
2022/06/06 00:37:56;;;;;;;10.30;5.10;;;;;;;10.38;92.76;100231.57;105596;1265;59641;-74
2022/06/06 00:40:49;;;;;;;11.20;5.50;;;;;;;10.37;92.60;100230.92;105443;1265;60588;-75
2022/06/06 00:43:36;;;;;;;10.10;5.60;;;;;;;10.37;92.63;100225.79;105566;1265;73907;-73
2022/06/06 00:46:26;;;;;;;9.70;4.90;;;;;;;10.37;93.03;100224.04;105435;1265;69418;-72
2022/06/06 00:49:44;;;;;;;11.60;5.50;;;;;;;10.38;93.82;100221.05;105549;1265;74472;-74
2022/06/06 00:52:37;;;;;;;10.30;5.20;;;;;;;10.41;94.37;100222.13;105142;1265;59644;-74
2022/06/06 00:55:29;;;;;;;11.00;5.80;;;;;;;10.44;94.59;100220.34;105105;1265;60936;-74
2022/06/06 00:58:21;;;;;;;11.90;5.90;;;;;;;10.43;94.29;100223.41;105153;1265;74830;-73
2022/06/06 01:01:09;;;;;;;10.90;5.70;;;;;;;10.42;94.44;100217.61;105428;1265;67649;-73
2022/06/06 01:04:00;;;;;;;9.90;5.70;;;;;;;10.40;94.59;100216.88;105253;1265;74467;-74
2022/06/06 01:06:46;;;;;;;10.80;5.40;;;;;;;10.38;95.23;100214.52;105345;1265;61614;-72
2022/06/06 01:09:36;;;;;;;11.10;6.00;;;;;;;10.36;94.93;100203.36;105301;1265;60505;-74
2022/06/06 01:12:23;;;;;;;11.10;5.50;;;;;;;10.33;94.76;100192.52;105350;1265;74670;-72
2022/06/06 01:15:14;;;;;;;11.40;5.60;;;;;;;10.30;94.80;100184.92;105373;1265;67556;-72
2022/06/06 01:18:58;;;;;;;14.30;5.60;;;;;;;10.29;94.93;100180.80;105146;1265;73446;-72
2022/06/06 01:22:31;;;;;;;11.10;5.60;;;;;;;10.29;95.88;100165.35;104761;1274;59879;-72
2022/06/06 01:25:54;;;;;;;11.20;5.60;;;;;;;10.35;97.60;100152.49;104895;1274;59672;-75
2022/06/06 01:29:02;;;;;;;11.20;5.40;;;;;;;10.41;97.43;100153.52;104816;1274;74766;-73
2022/06/06 01:32:10;;;;;;;11.30;5.40;;;;;;;10.44;96.70;100153.09;104803;1274;69500;-72
2022/06/06 01:34:56;;;;;;;10.30;4.90;;;;;;;10.48;96.76;100147.08;104915;1275;74501;-74
2022/06/06 01:37:43;;;;;;;9.30;4.70;;;;;;;10.52;97.07;100143.45;104721;1271;59814;-76
2022/06/06 01:40:59;;;;;;;10.70;5.40;;;;;;;10.55;96.37;100141.05;104829;1274;61057;-74
2022/06/06 01:43:57;;;;;;;10.40;5.30;;;;;;;10.54;95.67;100140.40;104883;1274;72478;-76
2022/06/06 01:46:44;;;;;;;11.10;5.30;;;;;;;10.55;96.10;100142.96;104900;1274;68799;-75
2022/06/06 01:49:33;;;;;;;8.50;4.50;;;;;;;10.59;97.11;100146.80;104784;1273;73444;-74
2022/06/06 01:52:20;;;;;;;10.50;5.00;;;;;;;10.63;97.13;100142.42;104699;1274;60272;-74
2022/06/06 01:55:07;;;;;;;9.90;5.10;;;;;;;10.66;97.24;100145.18;104704;1275;61889;-74
2022/06/06 01:57:57;;;;;;;10.90;4.80;;;;;;;10.67;96.14;100151.87;104844;1270;74302;-75
2022/06/06 02:00:45;;;;;;;10.10;4.80;;;;;;;10.63;94.84;100149.15;105175;1268;68619;-74
2022/06/06 02:03:34;;;;;;;10.00;5.30;;;;;;;10.60;94.29;100153.70;105295;1265;73414;-78
2022/06/06 02:06:20;;;;;;;9.70;4.80;;;;;;;10.56;94.29;100150.92;105358;1265;59671;-76
2022/06/06 02:09:09;;;;;;;13.00;5.60;;;;;;;10.52;94.29;100144.84;105484;1265;61965;-74
2022/06/06 02:11:55;;;;;;;9.50;5.10;;;;;;;10.46;94.51;100138.54;105344;1265;73851;-73
2022/06/06 02:14:41;;;;;;;10.10;5.00;;;;;;;10.42;95.06;100138.55;105235;1265;66223;-74
2022/06/06 02:17:28;;;;;;;11.50;5.50;;;;;;;10.38;95.41;100135.77;105274;1265;74508;-77
2022/06/06 02:20:18;;;;;;;10.30;4.80;;;;;;;10.37;95.84;100128.05;105203;1265;59667;-73
2022/06/06 02:23:06;;;;;;;11.50;5.40;;;;;;;10.36;95.60;100130.09;105047;1265;60731;-73
2022/06/06 02:25:54;;;;;;;10.60;5.10;;;;;;;10.35;95.77;100128.36;105452;1265;73824;-73
2022/06/06 02:28:41;;;;;;;12.30;5.40;;;;;;;10.36;96.45;100125.66;105360;1267;68478;-73
2022/06/06 02:31:28;;;;;;;10.60;5.30;;;;;;;10.38;96.34;100121.58;105407;1268;73578;-72
2022/06/06 02:34:16;;;;;;;10.40;4.90;;;;;;;10.39;95.71;100117.94;105303;1265;61269;-72
2022/06/06 02:37:02;;;;;;;9.40;4.90;;;;;;;10.40;95.60;100120.23;105312;1265;61409;-73
2022/06/06 02:39:48;;;;;;;10.70;5.10;;;;;;;10.41;95.76;100129.17;105316;1265;74842;-71
2022/06/06 02:42:35;;;;;;;9.70;5.00;;;;;;;10.41;95.80;100124.73;105249;1265;69671;-72
2022/06/06 02:45:21;;;;;;;10.30;5.40;;;;;;;10.44;96.13;100130.91;105271;1265;74327;-72
2022/06/06 02:48:09;;;;;;;11.30;5.30;;;;;;;10.46;96.26;100128.13;105317;1268;59659;-72
2022/06/06 02:50:56;;;;;;;9.60;4.80;;;;;;;10.48;96.08;100124.07;105238;1268;61002;-72
2022/06/06 02:53:43;;;;;;;9.10;5.00;;;;;;;10.50;96.34;100124.92;105326;1268;72014;-72
2022/06/06 02:56:30;;;;;;;10.40;4.60;;;;;;;10.55;96.08;100125.79;105298;1268;68944;-71
2022/06/06 02:59:28;;;;;;;10.50;5.40;;;;;;;10.63;96.31;100128.75;105173;1268;74489;-73
2022/06/06 03:02:14;;;;;;;8.40;4.30;;;;;;;10.71;96.39;100127.80;105312;1268;59650;-72
2022/06/06 03:05:03;;;;;;;11.20;5.30;;;;;;;10.82;97.01;100121.66;105528;1268;62140;-74
2022/06/06 03:08:12;;;;;;;10.20;5.00;;;;;;;10.93;96.52;100120.43;105433;1268;73816;-72
2022/06/06 03:11:17;;;;;;;8.60;4.60;;;;;;;11.05;95.93;100120.36;105337;1268;68519;-77
2022/06/06 03:14:48;;;;;;;10.20;5.20;;;;;;;11.15;95.44;100114.27;105509;1268;71889;-76
2022/06/06 03:21:26;;;;;;;9.40;4.40;;;;;;;11.37;95.06;100109.14;105222;1268;60458;-74
2022/06/06 03:24:39;;;;;;;10.60;4.80;;;;;;;11.48;94.39;100111.08;105412;1268;72464;-76
2022/06/06 03:27:52;;;;;;;12.90;4.60;;;;;;;11.59;93.60;100107.52;105105;1269;69598;-77
2022/06/06 03:31:46;;;;;;;10.30;4.40;;;;;;;11.71;93.38;100107.61;105324;1268;72617;-75
2022/06/06 03:34:42;;;;;;;10.50;5.00;;;;;;;11.86;92.28;100109.73;104741;1274;59801;-75
2022/06/06 03:37:43;;;;;;;9.50;4.90;;;;;;;11.97;91.95;100107.84;104764;1274;60425;-74
2022/06/06 03:41:05;;;;;;;11.00;5.00;;;;;;;12.09;91.88;100103.34;104532;1276;73151;-73
2022/06/06 03:44:13;;;;;;;11.20;5.00;;;;;;;12.22;91.38;100103.27;104529;1278;66623;-75
2022/06/06 03:47:09;;;;;;;10.20;4.70;;;;;;;12.32;91.02;100103.85;104971;1274;73216;-75
2022/06/06 03:50:13;;;;;;;9.50;4.80;;;;;;;12.43;90.55;100105.04;104900;1274;59787;-74
2022/06/06 03:53:09;;;;;;;13.90;4.80;;;;;;;12.56;90.13;100104.90;104654;1273;60797;-74
2022/06/06 03:56:31;;;;;;;9.40;4.50;;;;;;;12.70;89.66;100102.95;104796;1275;73499;-73
2022/06/06 03:59:21;;;;;;;11.40;4.60;;;;;;;12.87;89.01;100101.73;104640;1274;68355;-73
2022/06/06 04:02:09;;;;;;;8.80;4.10;;;;;;;13.04;88.14;100097.91;104771;1274;74748;-73
2022/06/06 04:05:03;;;;;;;14.60;4.60;;;;;;;13.20;87.62;100091.67;104741;1274;59692;-73
2022/06/06 04:07:49;;;;;;;12.20;4.60;;;;;;;13.35;86.72;100086.67;104707;1268;62130;-74
2022/06/06 04:11:05;;;;;;;13.80;4.40;;;;;;;13.56;85.82;100089.41;105193;1265;72524;-72
2022/06/06 04:14:12;;;;;;;8.60;3.60;;;;;;;13.76;84.74;100089.04;105617;1265;67488;-72
2022/06/06 04:17:47;;;;;;;8.60;4.10;;;;;;;13.97;82.44;100091.44;105100;1268;73328;-71
2022/06/06 04:21:19;;;;;;;8.40;4.00;;;;;;;14.19;81.02;100086.80;105343;1265;59767;-71
2022/06/06 04:24:40;;;;;;;9.40;3.50;;;;;;;14.44;80.25;100086.19;104907;1274;59824;-71
2022/06/06 04:28:02;;;;;;;10.40;3.90;;;;;;;14.72;78.17;100083.44;105192;1273;73758;-73
2022/06/06 04:30:54;;;;;;;9.50;3.60;;;;;;;15.07;74.65;100077.47;104584;1273;68417;-70
2022/06/06 04:34:24;;;;;;;9.30;3.70;;;;;;;15.43;71.63;100074.34;104606;1274;72547;-72
2022/06/06 04:37:35;;;;;;;7.90;3.50;;;;;;;15.88;68.11;100069.95;104634;1273;59973;-72
2022/06/06 04:40:36;;;;;;;8.20;3.50;;;;;;;16.36;66.28;100069.62;104796;1273;62148;-72
2022/06/06 04:44:01;;;;;;;7.90;3.60;;;;;;;16.89;62.72;100071.67;104769;1275;73847;-72
2022/06/06 04:47:17;;;;;;;8.10;3.40;;;;;;;17.51;60.28;100067.72;104595;1274;68568;-72
2022/06/06 04:50:14;;;;;;;8.50;3.30;;;;;;;18.09;57.96;100070.26;105004;1273;73581;-74
2022/06/06 04:53:08;;;;;;;7.50;3.30;;;;;;;18.63;57.71;100067.23;104654;1273;59966;-73
2022/06/06 04:55:56;;;;;;;7.40;3.20;;;;;;;19.17;54.85;100064.29;104786;1273;60611;-73
2022/06/06 04:58:45;;;;;;;9.80;2.90;;;;;;;19.65;52.84;100069.77;104716;1273;73698;-73
2022/06/06 05:01:33;;;;;;;8.40;3.00;;;;;;;20.09;51.13;100070.89;105209;1267;68466;-72
2022/06/06 05:04:19;;;;;;;7.00;2.60;;;;;;;20.49;48.68;100072.90;105450;1267;72059;-73
2022/06/06 05:07:36;;;;;;;7.30;3.10;;;;;;;20.91;49.08;100077.42;105303;1265;59758;-73
2022/06/06 05:11:17;;;;;;;6.70;2.90;;;;;;;21.54;46.68;100072.45;105151;1265;60437;-72
2022/06/06 05:14:21;;;;;;;7.50;2.90;;;;;;;22.08;44.35;100072.35;105291;1265;74649;-74
2022/06/06 05:17:14;;;;;;;8.00;2.80;;;;;;;22.43;42.69;100067.98;105416;1265;69907;-73
2022/06/06 05:20:36;;;;;;;7.50;2.90;;;;;;;22.75;41.08;100064.54;105269;1265;74223;-73
2022/06/06 05:23:56;;;;;;;6.30;2.80;;;;;;;23.28;39.89;100065.42;105037;1267;59784;-72
2022/06/06 05:26:53;;;;;;;7.50;2.70;;;;;;;23.97;38.36;100058.71;105186;1268;60699;-72
2022/06/06 05:30:08;;;;;;;6.10;2.60;;;;;;;24.29;36.86;100063.89;105169;1268;73589;-72
2022/06/06 05:33:07;;;;;;;7.50;2.70;;;;;;;24.48;35.71;100066.02;105054;1265;68699;-73
2022/06/06 05:36:21;;;;;;;6.90;2.60;;;;;;;24.46;35.02;100071.61;105038;1265;74442;-75
2022/06/06 05:39:10;;;;;;;7.00;2.30;;;;;;;24.97;35.55;100069.83;105031;1265;59713;-74
2022/06/06 05:42:31;;;;;;;7.70;2.30;;;;;;;25.84;33.95;100070.70;105391;1265;61173;-73
2022/06/06 05:45:25;;;;;;;6.80;2.50;;;;;;;26.80;32.45;100069.35;105390;1265;75126;-70
2022/06/06 05:48:50;;;;;;;8.80;3.10;;;;;;;27.12;30.80;100064.42;105340;1265;68626;-78
2022/06/06 05:51:45;;;;;;;6.60;2.80;;;;;;;27.41;29.72;100065.59;105455;1265;72673;-79
2022/06/06 05:54:59;;;;;;;6.90;2.50;;;;;;;27.82;29.90;100058.28;105237;1265;59771;-75
2022/06/06 05:58:03;;;;;;;7.50;2.50;;;;;;;28.20;29.21;100055.87;105436;1265;60418;-75
2022/06/06 06:01:21;;;;;;;8.20;2.60;;;;;;;28.10;29.16;100049.23;105282;1265;73129;-74
2022/06/06 06:04:20;;;;;;;6.90;2.50;;;;;;;27.89;30.44;100049.00;105237;1267;68555;-74
2022/06/06 06:07:19;;;;;;;8.00;2.70;;;;;;;27.73;30.29;100047.61;105594;1265;73414;-77
2022/06/06 06:10:10;;;;;;;6.70;2.60;;;;;;;27.80;30.66;100046.52;105406;1265;59653;-77
2022/06/06 06:13:27;;;;;;;8.40;2.70;;;;;;;28.39;30.01;100042.25;105561;1265;59622;-75
2022/06/06 06:16:17;;;;;;;9.20;2.70;;;;;;;28.99;28.81;100040.48;105187;1265;73902;-75
2022/06/06 06:19:11;;;;;;;8.60;2.80;;;;;;;29.13;28.45;100038.79;105508;1265;68858;-77
2022/06/06 06:22:01;;;;;;;7.60;2.50;;;;;;;29.02;28.55;100031.19;105056;1265;71974;-74
2022/06/06 06:24:50;;;;;;;7.30;2.60;;;;;;;28.81;29.11;100026.19;105160;1265;59643;-75
2022/06/06 06:27:39;;;;;;;6.60;2.40;;;;;;;28.56;29.16;100025.06;105114;1265;60897;-75
2022/06/06 06:30:31;;;;;;;6.90;2.40;;;;;;;28.16;30.08;100020.96;105152;1265;73757;-75
2022/06/06 06:34:19;;;;;;;7.10;3.10;;;;;;;27.86;29.87;100022.40;105214;1265;68174;-74
2022/06/06 06:37:42;;;;;;;7.10;2.60;;;;;;;27.27;31.08;100021.59;105092;1265;74437;-73
2022/06/06 06:40:57;;;;;;;6.90;2.80;;;;;;;27.03;31.69;100023.31;105586;1265;60234;-75
2022/06/06 06:44:11;;;;;;;7.80;2.90;;;;;;;27.15;31.58;100019.67;105289;1265;60438;-75
2022/06/06 06:47:24;;;;;;;7.20;2.70;;;;;;;27.33;32.01;100017.10;105177;1265;73165;-74
2022/06/06 06:50:26;;;;;;;6.70;2.60;;;;;;;27.29;31.24;100021.80;105477;1265;69525;-73
2022/06/06 06:53:57;;;;;;;7.70;3.20;;;;;;;27.27;31.19;100019.77;105393;1265;73334;-76
2022/06/06 06:56:58;;;;;;;7.30;3.00;;;;;;;27.49;31.21;100013.95;105306;1265;59778;-72
2022/06/06 07:00:06;;;;;;;8.70;3.70;;;;;;;27.77;30.93;100007.36;105485;1265;59846;-75
2022/06/06 07:10:13;;;;;;;9.80;2.90;;;;;;;28.51;29.69;100002.95;105246;1265;72462;-77
2022/06/06 07:13:19;;;;;;;8.10;2.60;;;;;;;29.21;28.85;100002.48;105413;1265;59649;-77
2022/06/06 07:16:26;;;;;;;6.70;3.20;;;;;;;29.99;27.84;99991.16;105243;1265;59866;-75
2022/06/06 07:19:20;;;;;;;7.90;3.30;;;;;;;30.80;27.03;99982.00;105360;1265;73891;-74
2022/06/06 07:22:08;;;;;;;9.00;2.80;;;;;;;31.11;26.02;99984.55;105139;1265;68479;-76
2022/06/06 07:24:58;;;;;;;7.40;2.80;;;;;;;31.22;25.35;99987.80;105421;1265;74399;-75
2022/06/06 07:27:44;;;;;;;7.20;3.30;;;;;;;31.10;25.48;99989.64;105249;1265;62530;-75
2022/06/06 07:30:55;;;;;;;9.00;3.10;;;;;;;31.43;25.71;99989.94;105131;1265;60402;-75
2022/06/06 07:34:19;;;;;;;8.30;2.70;;;;;;;31.79;25.55;99984.63;105358;1265;73173;-79
2022/06/06 07:37:36;;;;;;;6.90;2.80;;;;;;;32.22;25.29;99983.16;105350;1265;68665;-74
2022/06/06 07:40:56;;;;;;;6.80;2.40;;;;;;;32.79;24.79;99984.05;105512;1265;73336;-77
2022/06/06 07:44:32;;;;;;;9.50;3.00;;;;;;;33.29;24.35;99977.86;105373;1265;59647;-77
2022/06/06 07:47:40;;;;;;;9.10;3.20;;;;;;;34.21;23.64;99964.45;105243;1265;60397;-75
2022/06/06 07:50:57;;;;;;;8.20;2.50;;;;;;;35.01;22.41;99964.79;105412;1265;74671;-78
2022/06/06 07:54:31;;;;;;;8.80;2.70;;;;;;;35.72;21.82;99965.48;105129;1265;67348;-77
2022/06/06 07:57:44;;;;;;;6.10;2.30;;;;;;;36.11;20.42;99965.30;104647;1273;72252;-77
2022/06/06 08:00:31;;;;;;;8.80;2.30;;;;;;;36.14;20.19;99958.92;104661;1273;60527;-77
2022/06/06 08:03:35;;;;;;;9.80;4.10;;;;;;;35.76;20.21;99963.41;104740;1273;60971;-76
2022/06/06 08:06:43;;;;;;;9.90;2.80;;;;;;;35.62;20.18;99965.17;104930;1273;73581;-77
2022/06/06 08:10:00;;;;;;;6.60;2.30;;;;;;;35.93;20.16;99962.61;104695;1274;69474;-78
2022/06/06 08:13:05;;;;;;;7.30;2.30;;;;;;;36.41;20.12;99952.83;104776;1273;74448;-77
2022/06/06 08:16:15;;;;;;;9.50;2.60;;;;;;;36.32;19.69;99953.27;105004;1273;59855;-78
2022/06/06 08:19:48;;;;;;;7.50;2.20;;;;;;;36.06;19.84;99960.48;105164;1273;60450;-80
2022/06/06 08:22:42;;;;;;;8.30;2.30;;;;;;;36.21;19.86;99957.12;104811;1273;73213;-77
2022/06/06 08:25:30;;;;;;;7.70;2.60;;;;;;;35.91;19.77;99964.40;104798;1273;66803;-73
2022/06/06 08:28:16;;;;;;;7.90;2.70;;;;;;;35.70;19.88;99961.95;104629;1273;74436;-75
2022/06/06 08:31:04;;;;;;;7.30;2.40;;;;;;;35.33;20.40;99964.77;104509;1273;59878;-74
2022/06/06 08:33:51;;;;;;;9.20;2.40;;;;;;;35.02;21.11;99955.55;104967;1265;62234;-74
2022/06/06 08:37:05;;;;;;;6.70;2.80;;;;;;;34.76;21.10;99962.61;105048;1268;73343;-73
2022/06/06 08:40:00;;;;;;;6.70;2.60;;;;;;;34.76;21.40;99958.22;105490;1265;70168;-70
2022/06/06 08:43:13;;;;;;;7.80;3.10;;;;;;;34.56;21.64;99955.52;105169;1262;73233;-72
2022/06/06 08:46:22;;;;;;;8.40;2.70;;;;;;;34.79;21.83;99954.84;105276;1267;59673;-73
2022/06/06 08:53:15;;;;;;;6.90;3.10;;;;;;;35.13;21.79;99952.13;105627;1264;73665;-78
2022/06/06 08:56:38;;;;;;;7.20;2.90;;;;;;;35.47;21.18;99950.80;105533;1265;69465;-75
2022/06/06 08:59:53;;;;;;;10.00;3.00;;;;;;;35.53;21.27;99947.05;105238;1265;73330;-75
2022/06/06 09:03:12;;;;;;;8.40;4.30;;;;;;;35.45;21.54;99949.05;105115;1265;59739;-76
2022/06/06 09:06:33;;;;;;;6.20;2.90;;;;;;;35.56;21.20;99942.31;105296;1262;59657;-75
2022/06/06 09:10:13;;;;;;;7.80;3.60;;;;;;;35.46;20.71;99950.64;105161;1265;73869;-75
2022/06/06 09:13:34;;;;;;;7.50;3.30;;;;;;;34.15;22.31;99947.91;105197;1265;68873;-75
2022/06/06 09:16:44;;;;;;;10.10;3.20;;;;;;;32.22;24.26;99945.37;105290;1265;72015;-77
2022/06/06 09:20:27;;;;;;;7.90;3.50;;;;;;;31.29;25.84;99941.43;105291;1265;59619;-79
2022/06/06 09:23:25;;;;;;;7.30;3.10;;;;;;;31.52;26.29;99932.69;105573;1273;61127;-75
2022/06/06 09:26:57;;;;;;;8.90;3.50;;;;;;;32.21;24.94;99932.77;106129;1273;71896;-73
2022/06/06 09:30:54;;;;;;;7.00;3.50;;;;;;;32.77;24.57;99931.14;105797;1273;69638;-77
2022/06/06 09:33:53;;;;;;;8.40;3.20;;;;;;;31.80;24.18;99930.10;106374;1272;74380;-75
2022/06/06 09:37:04;;;;;;;7.70;3.40;;;;;;;30.88;25.04;99931.36;105339;1273;59747;-74
2022/06/06 09:40:39;;;;;;;8.90;3.40;;;;;;;30.81;25.87;99928.19;104950;1273;62029;-75
2022/06/06 09:44:02;;;;;;;8.80;4.00;;;;;;;30.56;26.26;99928.71;105024;1274;73802;-75
2022/06/06 09:47:30;;;;;;;8.50;3.60;;;;;;;30.62;26.37;99924.39;105122;1273;68450;-74
2022/06/06 09:51:03;;;;;;;7.10;3.20;;;;;;;30.40;26.26;99925.80;104820;1273;73405;-74
2022/06/06 10:01:37;;;;;;;7.00;3.30;;;;;;;32.22;24.88;99907.77;105177;1265;73906;-74
2022/06/06 10:04:39;;;;;;;7.80;3.40;;;;;;;32.86;23.68;99898.05;105581;1265;68116;-76
2022/06/06 10:08:21;;;;;;;7.50;3.00;;;;;;;33.42;22.59;99897.26;105484;1265;74471;-75
2022/06/06 10:11:48;;;;;;;7.50;3.00;;;;;;;33.44;20.50;99892.69;105436;1265;59660;-74
2022/06/06 10:14:47;;;;;;;6.80;2.70;;;;;;;33.84;20.91;99887.77;105441;1265;59653;-72
2022/06/06 10:18:05;;;;;;;7.00;3.40;;;;;;;33.80;21.22;99895.45;105567;1265;74792;-73
2022/06/06 10:21:17;;;;;;;9.30;3.20;;;;;;;33.33;21.96;99888.94;105299;1265;68888;-71
2022/06/06 10:24:12;;;;;;;9.10;3.40;;;;;;;32.87;23.21;99886.88;105148;1265;73554;-74
2022/06/06 10:27:29;;;;;;;8.40;3.40;;;;;;;33.24;22.89;99875.41;105229;1265;59736;-73
2022/06/06 10:30:30;;;;;;;7.00;3.00;;;;;;;34.24;21.74;99884.05;105213;1265;60970;-73
2022/06/06 10:33:25;;;;;;;7.10;2.90;;;;;;;34.61;20.71;99881.68;105080;1265;72691;-74
2022/06/06 10:36:47;;;;;;;6.40;2.40;;;;;;;34.96;18.83;99882.00;105304;1265;69576;-71
2022/06/06 10:39:49;;;;;;;6.90;2.60;;;;;;;35.40;17.74;99878.27;105130;1265;73488;-72
2022/06/06 10:43:11;;;;;;;6.90;3.10;;;;;;;35.64;17.28;99880.89;105378;1265;59718;-72
2022/06/06 10:46:08;;;;;;;6.50;2.70;;;;;;;35.92;17.52;99870.60;105084;1265;61043;-74
2022/06/06 10:49:01;;;;;;;8.00;2.80;;;;;;;35.44;17.69;99881.27;105508;1265;74758;-75
2022/06/06 10:52:40;;;;;;;6.50;3.00;;;;;;;35.30;18.50;99878.29;105254;1265;67738;-74
2022/06/06 10:56:01;;;;;;;6.70;3.00;;;;;;;34.91;18.88;99868.95;105150;1265;71266;-71
2022/06/06 10:59:03;;;;;;;7.30;3.00;;;;;;;34.89;19.00;99865.31;105187;1265;59642;-74
2022/06/06 11:02:28;;;;;;;6.10;2.80;;;;;;;34.78;19.23;99863.81;105469;1265;60393;-73
2022/06/06 11:05:52;;;;;;;7.40;2.80;;;;;;;34.15;20.02;99861.42;105092;1265;74057;-76
2022/06/06 11:09:04;;;;;;;7.30;3.00;;;;;;;33.92;19.57;99852.22;105381;1265;68488;-73
2022/06/06 11:12:36;;;;;;;7.30;3.00;;;;;;;33.08;20.20;99862.91;105298;1265;72706;-74
2022/06/06 11:15:29;;;;;;;7.60;3.00;;;;;;;32.09;21.25;99865.77;105255;1265;59744;-75
2022/06/06 11:18:53;;;;;;;7.80;3.20;;;;;;;31.96;22.09;99861.40;105371;1267;60085;-74
2022/06/06 11:22:10;;;;;;;10.00;4.00;;;;;;;31.72;22.99;99861.02;105188;1265;72213;-75
2022/06/06 11:25:17;;;;;;;7.90;3.10;;;;;;;31.66;23.32;99858.14;105309;1265;68702;-75
2022/06/06 11:28:25;;;;;;;7.20;2.90;;;;;;;31.66;22.64;99859.56;105523;1265;74550;-75
2022/06/06 11:31:33;;;;;;;7.20;3.00;;;;;;;31.09;22.47;99857.35;105519;1265;59621;-74
2022/06/06 11:34:50;;;;;;;7.30;3.30;;;;;;;30.58;23.05;99861.03;105577;1265;62223;-75
2022/06/06 11:38:17;;;;;;;7.90;3.50;;;;;;;29.77;24.50;99863.27;105205;1265;71902;-74
2022/06/06 11:41:41;;;;;;;6.40;3.10;;;;;;;29.09;26.14;99865.05;105234;1265;68365;-76
2022/06/06 11:45:10;;;;;;;6.50;3.10;;;;;;;28.85;27.26;99857.27;105361;1265;73723;-77
2022/06/06 11:48:48;;;;;;;7.30;3.30;;;;;;;28.70;27.77;99855.94;105451;1265;60113;-76
2022/06/06 11:51:55;;;;;;;7.50;3.30;;;;;;;28.32;27.84;99859.55;105361;1265;62476;-76
2022/06/06 11:54:54;;;;;;;7.00;3.80;;;;;;;28.08;28.56;99857.30;105606;1265;73746;-76
2022/06/06 11:58:24;;;;;;;7.60;3.60;;;;;;;27.84;29.09;99850.23;105326;1265;67533;-76
2022/06/06 12:01:24;;;;;;;8.00;3.70;;;;;;;27.61;29.09;99853.25;105300;1265;72050;-75
2022/06/06 12:04:22;;;;;;;7.40;3.90;;;;;;;27.45;28.90;99846.59;105296;1265;59557;-73
2022/06/06 12:07:52;;;;;;;7.40;3.50;;;;;;;27.29;28.86;99853.54;105314;1265;59972;-75
2022/06/06 12:11:21;;;;;;;7.10;3.60;;;;;;;26.97;29.00;99845.94;105184;1265;74043;-72
2022/06/06 12:14:19;;;;;;;8.00;4.20;;;;;;;26.84;30.43;99842.52;105363;1265;68663;-72
2022/06/06 12:17:37;;;;;;;8.60;4.50;;;;;;;26.97;31.28;99839.25;105354;1265;73462;-74
2022/06/06 12:20:35;;;;;;;8.20;3.80;;;;;;;26.91;31.32;99845.13;105536;1264;59631;-77
2022/06/06 12:23:42;;;;;;;8.70;4.00;;;;;;;26.78;31.70;99845.27;105329;1265;61000;-75
2022/06/06 12:27:26;;;;;;;9.20;3.90;;;;;;;26.63;30.94;99843.21;105449;1265;72898;-75
2022/06/06 12:30:45;;;;;;;8.40;3.90;;;;;;;26.41;31.17;99842.38;105286;1265;68392;-78
2022/06/06 12:33:42;;;;;;;7.60;4.00;;;;;;;26.41;31.36;99844.17;105719;1265;72491;-76
2022/06/06 12:36:52;;;;;;;8.20;4.40;;;;;;;26.32;32.04;99846.59;105443;1265;59733;-77
2022/06/06 12:40:41;;;;;;;7.70;4.10;;;;;;;26.25;31.85;99842.14;105447;1267;62071;-77
2022/06/06 12:44:01;;;;;;;8.10;4.50;;;;;;;26.30;31.14;99847.25;105092;1275;72937;-74
2022/06/06 12:47:34;;;;;;;7.30;3.80;;;;;;;26.10;32.24;99846.21;104901;1274;68617;-75
2022/06/06 12:50:39;;;;;;;7.60;4.10;;;;;;;26.09;32.68;99845.02;104757;1273;73099;-76
2022/06/06 12:53:38;;;;;;;8.50;4.00;;;;;;;26.04;32.70;99845.93;104927;1274;59928;-74
2022/06/06 12:56:53;;;;;;;8.90;4.00;;;;;;;25.99;32.66;99844.25;104965;1273;60393;-78
2022/06/06 13:00:01;;;;;;;9.20;4.10;;;;;;;25.84;33.04;99844.29;104892;1273;72304;-76
2022/06/06 13:03:24;;;;;;;10.00;4.10;;;;;;;25.87;32.69;99841.37;105026;1273;68358;-74
2022/06/06 13:06:23;;;;;;;9.90;4.00;;;;;;;25.92;33.00;99831.20;105055;1273;72380;-73
2022/06/06 13:09:44;;;;;;;10.40;4.40;;;;;;;25.72;33.66;99825.92;104653;1273;59752;-71
2022/06/06 13:12:58;;;;;;;8.00;4.40;;;;;;;25.69;34.30;99834.11;104638;1273;60354;-76
2022/06/06 13:16:15;;;;;;;9.40;4.50;;;;;;;25.66;33.81;99830.14;105328;1265;73823;-72
2022/06/06 13:19:32;;;;;;;7.90;4.10;;;;;;;25.64;33.96;99831.95;105260;1265;68539;-73
2022/06/06 13:22:53;;;;;;;9.40;4.90;;;;;;;25.65;34.04;99837.47;105559;1265;72318;-74
2022/06/06 13:26:42;;;;;;;7.80;4.10;;;;;;;25.60;34.10;99827.23;105643;1265;59993;-75
2022/06/06 13:29:33;;;;;;;8.10;4.50;;;;;;;25.53;34.70;99836.65;104882;1273;59518;-76
2022/06/06 13:33:15;;;;;;;9.70;5.10;;;;;;;25.45;34.69;99832.54;104778;1273;71889;-79
2022/06/06 13:36:11;;;;;;;7.80;4.60;;;;;;;25.47;34.82;99829.02;104496;1281;66756;-76
2022/06/06 13:39:29;;;;;;;7.60;4.60;;;;;;;25.44;34.79;99830.86;104204;1281;73020;-77
2022/06/06 13:42:41;;;;;;;8.60;4.60;;;;;;;25.44;35.19;99832.54;104389;1281;59735;-78
2022/06/06 13:46:05;;;;;;;8.30;4.40;;;;;;;25.45;35.29;99831.33;104405;1281;62144;-77
2022/06/06 13:49:02;;;;;;;9.30;4.40;;;;;;;25.45;35.13;99831.66;104264;1279;73965;-76
2022/06/06 13:52:01;;;;;;;8.40;5.10;;;;;;;25.19;35.09;99835.27;104237;1281;68845;-78
2022/06/06 13:54:48;;;;;;;9.20;4.60;;;;;;;25.15;35.42;99830.27;104409;1281;72160;-76
2022/06/06 13:57:51;;;;;;;9.70;4.50;;;;;;;25.09;35.43;99823.38;104496;1281;59854;-77
2022/06/06 14:01:05;;;;;;;10.30;4.80;;;;;;;25.09;35.59;99828.17;104797;1280;60429;-77
2022/06/06 14:04:53;;;;;;;8.30;4.90;;;;;;;25.06;35.55;99831.93;104641;1281;73272;-76
2022/06/06 14:08:04;;;;;;;9.50;4.50;;;;;;;24.96;35.62;99827.19;104541;1279;68114;-77
2022/06/06 14:10:56;;;;;;;7.60;4.40;;;;;;;24.88;36.08;99826.19;104640;1279;74640;-78
2022/06/06 14:13:52;;;;;;;9.40;4.80;;;;;;;24.84;36.01;99824.98;104877;1273;59761;-79
2022/06/06 14:16:47;;;;;;;8.50;4.60;;;;;;;24.79;36.31;99824.58;105025;1273;60405;-76
2022/06/06 14:19:54;;;;;;;8.10;4.50;;;;;;;24.75;36.59;99825.36;104669;1273;73286;-78
2022/06/06 14:22:41;;;;;;;7.90;4.60;;;;;;;24.77;36.68;99821.58;104798;1273;68065;-77
2022/06/06 14:25:45;;;;;;;9.30;4.60;;;;;;;24.74;36.52;99816.90;104868;1273;72898;-79
2022/06/06 14:28:39;;;;;;;8.20;4.90;;;;;;;24.74;36.94;99818.66;104922;1273;59918;-79
2022/06/06 14:31:40;;;;;;;7.90;4.60;;;;;;;24.69;37.17;99817.80;105393;1274;60563;-86
2022/06/06 14:34:36;;;;;;;7.60;4.30;;;;;;;24.64;36.89;99818.88;106612;1273;73164;-80
2022/06/06 14:37:34;;;;;;;8.60;4.70;;;;;;;24.64;36.71;99815.63;105148;1268;67374;-76
2022/06/06 14:40:43;;;;;;;9.90;4.80;;;;;;;24.65;36.46;99812.77;106130;1268;74781;-82
2022/06/06 14:43:58;;;;;;;7.30;4.00;;;;;;;24.67;36.59;99812.50;106094;1268;59326;-79